createdAt,value
2019-04-16T00:00:11.806Z,99964.30
2019-04-16T00:02:40.144Z,99964.13
2019-04-16T00:05:21.264Z,99934.28
2019-04-16T00:07:58.871Z,99934.28
2019-04-16T00:10:40.624Z,99948.13
2019-04-16T00:13:25.242Z,99957.15
2019-04-16T00:15:52.187Z,99949.06
2019-04-16T00:18:19.536Z,99958.48
2019-04-16T00:21:06.502Z,99958.03
2019-04-16T00:23:51.017Z,99962.40
2019-04-16T00:26:18.414Z,99956.02
2019-04-16T00:28:45.498Z,99960.88
2019-04-16T00:31:12.448Z,99959.30
2019-04-16T00:33:42.659Z,99961.16
2019-04-16T00:36:08.275Z,99951.04
2019-04-16T00:38:40.987Z,99954.66
2019-04-16T00:41:04.090Z,99959.53
2019-04-16T00:43:31.043Z,99954.22
2019-04-16T00:45:57.987Z,99960.56
2019-04-16T00:48:24.848Z,99962.67
2019-04-16T00:50:51.794Z,99960.81
2019-04-16T00:53:18.778Z,99949.75
2019-04-16T00:55:45.859Z,99954.70
2019-04-16T00:58:12.854Z,99963.56
2019-04-16T01:00:39.782Z,99955.00
2019-04-16T01:03:06.891Z,99957.95
2019-04-16T01:05:35.284Z,99955.84
2019-04-16T01:08:02.679Z,99955.53
2019-04-16T01:10:29.575Z,99953.07
2019-04-16T01:12:56.762Z,99955.41
2019-04-16T01:15:23.805Z,99953.30
2019-04-16T01:17:50.589Z,99959.97
2019-04-16T01:20:17.531Z,99958.98
2019-04-16T01:22:46.871Z,99956.35
2019-04-16T01:25:13.579Z,99957.50
2019-04-16T01:27:42.257Z,99952.97
2019-04-16T01:30:11.324Z,99956.19
2019-04-16T01:32:42.390Z,99961.21
2019-04-16T01:35:18.806Z,99961.38
2019-04-16T01:38:01.302Z,99963.47
2019-04-16T01:40:30.090Z,99959.27
2019-04-16T01:42:56.918Z,99960.22
2019-04-16T01:45:23.810Z,99956.41
2019-04-16T01:47:50.642Z,99959.73
2019-04-16T01:50:17.518Z,99958.67
2019-04-16T01:52:44.270Z,99966.75
2019-04-16T01:55:11.406Z,99965.03
2019-04-16T01:57:38.464Z,99964.22
2019-04-16T02:00:08.573Z,99967.81
2019-04-16T02:02:35.746Z,99969.46
2019-04-16T02:05:04.922Z,99962.77
2019-04-16T02:07:31.821Z,99959.50
2019-04-16T02:09:58.928Z,99964.30
2019-04-16T02:12:25.790Z,99966.73
2019-04-16T02:14:52.810Z,99971.14
2019-04-16T02:17:19.809Z,99961.30
2019-04-16T02:19:46.565Z,99974.17
2019-04-16T02:22:14.077Z,99967.62
2019-04-16T02:24:41.176Z,99970.44
2019-04-16T02:27:08.008Z,99961.05
2019-04-16T02:29:35.064Z,99967.81
2019-04-16T02:32:02.062Z,99966.58
2019-04-16T02:34:29.065Z,99972.68
2019-04-16T02:37:00.625Z,99969.67
2019-04-16T02:39:38.701Z,99968.54
2019-04-16T02:41:57.414Z,99972.58
2019-04-16T02:44:22.308Z,99969.11
2019-04-16T02:46:49.365Z,99965.09
2019-04-16T02:49:16.264Z,99963.30
2019-04-16T02:51:45.159Z,99961.09
2019-04-16T02:54:14.198Z,99961.66
2019-04-16T02:56:53.087Z,99966.11
2019-04-16T02:59:22.478Z,99961.66
2019-04-16T03:02:10.691Z,99959.54
2019-04-16T03:04:39.936Z,99954.95
2019-04-16T03:07:06.884Z,99957.13
2019-04-16T03:09:33.837Z,99961.39
2019-04-16T03:12:00.758Z,99963.23
2019-04-16T03:14:30.064Z,99960.11
2019-04-16T03:17:01.584Z,99960.58
2019-04-16T03:19:39.334Z,99964.05
2019-04-16T03:22:06.209Z,99960.86
2019-04-16T03:24:32.933Z,99959.19
2019-04-16T03:27:00.000Z,99959.73
2019-04-16T03:29:30.107Z,99948.14
2019-04-16T03:31:58.338Z,99961.09
2019-04-16T03:34:24.851Z,99957.48
2019-04-16T03:36:51.723Z,99953.22
2019-04-16T03:39:18.568Z,99958.88
2019-04-16T03:41:45.519Z,99952.24
2019-04-16T03:44:12.566Z,99955.05
2019-04-16T03:46:40.221Z,99949.52
2019-04-16T03:49:07.284Z,99955.84
2019-04-16T03:51:35.586Z,99956.54
2019-04-16T03:54:04.883Z,99951.70
2019-04-16T03:56:31.852Z,99961.42
2019-04-16T03:58:58.741Z,99958.16
2019-04-16T04:01:25.711Z,99965.33
2019-04-16T04:03:54.426Z,99965.87
2019-04-16T04:06:21.744Z,99972.47
2019-04-16T04:08:52.860Z,99972.61
2019-04-16T04:11:17.703Z,99990.11
2019-04-16T04:13:49.722Z,99984.84
2019-04-16T04:16:13.337Z,99981.78
2019-04-16T04:18:42.858Z,99993.91
2019-04-16T04:21:09.248Z,99989.73
2019-04-16T04:23:36.063Z,99990.34
2019-04-16T04:26:05.528Z,99996.66
2019-04-16T04:28:31.916Z,99991.41
2019-04-16T04:31:01.028Z,99996.38
2019-04-16T04:33:41.897Z,99994.41
2019-04-16T04:36:10.353Z,100005.31
2019-04-16T04:38:38.465Z,100000.70
2019-04-16T04:41:06.046Z,100008.16
2019-04-16T04:43:32.889Z,99997.38
2019-04-16T04:46:00.025Z,100000.66
2019-04-16T04:48:27.133Z,100003.52
2019-04-16T04:50:53.989Z,100004.75
2019-04-16T04:53:20.927Z,100002.50
2019-04-16T04:55:47.835Z,99998.02
2019-04-16T04:58:14.609Z,100010.14
2019-04-16T05:00:41.761Z,100003.16
2019-04-16T05:03:12.407Z,100004.91
2019-04-16T05:05:46.635Z,100008.59
2019-04-16T05:08:13.469Z,100017.81
2019-04-16T05:10:43.260Z,100018.50
2019-04-16T05:13:09.246Z,100025.10
2019-04-16T05:15:36.207Z,100024.15
2019-04-16T05:18:05.783Z,100026.48
2019-04-16T05:20:32.809Z,100028.48
2019-04-16T05:22:59.731Z,100020.30
2019-04-16T05:25:27.052Z,100017.80
2019-04-16T05:27:54.005Z,100028.77
2019-04-16T05:30:22.150Z,100020.63
2019-04-16T05:32:49.169Z,100026.27
2019-04-16T05:35:16.162Z,100023.70
2019-04-16T05:37:43.027Z,100033.22
2019-04-16T05:40:10.566Z,100024.90
2019-04-16T05:42:37.603Z,100022.52
2019-04-16T05:45:06.408Z,100028.52
2019-04-16T05:47:33.451Z,100035.31
2019-04-16T05:50:00.321Z,100030.80
2019-04-16T05:52:27.074Z,100033.67
2019-04-16T05:55:01.724Z,100029.12
2019-04-16T05:57:34.698Z,100034.27
2019-04-16T06:00:03.256Z,100023.30
2019-04-16T06:02:38.741Z,100030.59
2019-04-16T06:05:05.826Z,100033.77
2019-04-16T06:07:37.777Z,100032.65
2019-04-16T06:10:01.759Z,100030.20
2019-04-16T06:12:33.732Z,100031.05
2019-04-16T06:15:02.985Z,100034.19
2019-04-16T06:17:32.918Z,100039.31
2019-04-16T06:20:01.698Z,100028.47
2019-04-16T06:22:43.279Z,100033.73
2019-04-16T06:25:27.566Z,100035.75
2019-04-16T06:27:59.893Z,100029.80
2019-04-16T06:30:32.994Z,100027.82
2019-04-16T06:32:59.832Z,100032.12
2019-04-16T06:35:42.518Z,100029.12
2019-04-16T06:38:21.271Z,100029.42
2019-04-16T06:41:04.014Z,100031.88
2019-04-16T06:43:51.874Z,100030.05
2019-04-16T06:46:21.049Z,100033.84
2019-04-16T06:48:50.575Z,100028.22
2019-04-16T06:51:31.921Z,100028.03
2019-04-16T06:54:00.963Z,100030.67
2019-04-16T06:56:46.103Z,100031.30
2019-04-16T06:59:30.473Z,100039.56
2019-04-16T07:01:57.970Z,100026.23
2019-04-16T07:04:35.903Z,100031.52
2019-04-16T07:07:13.585Z,100034.02
2019-04-16T07:09:45.551Z,100032.32
2019-04-16T07:12:15.728Z,100035.83
2019-04-16T07:14:45.510Z,100032.75
2019-04-16T07:17:11.540Z,100035.28
2019-04-16T07:19:39.463Z,100033.77
2019-04-16T07:22:07.460Z,100030.34
2019-04-16T07:24:36.601Z,100038.12
2019-04-16T07:27:03.318Z,100036.29
2019-04-16T07:29:37.999Z,100033.73
2019-04-16T07:32:23.841Z,100038.62
2019-04-16T07:35:09.392Z,100041.01
2019-04-16T07:37:47.878Z,100031.03
2019-04-16T07:40:33.438Z,100038.73
2019-04-16T07:43:18.897Z,100031.58
2019-04-16T07:45:47.662Z,100034.16
2019-04-16T07:48:16.773Z,100035.62
2019-04-16T07:50:45.916Z,100026.80
2019-04-16T07:53:15.139Z,100032.92
2019-04-16T07:55:46.991Z,100027.91
2019-04-16T07:58:13.977Z,100038.48
2019-04-16T08:00:41.598Z,100027.66
2019-04-16T08:03:08.884Z,100025.59
2019-04-16T08:05:37.708Z,100029.70
2019-04-16T08:08:05.388Z,100040.17
2019-04-16T08:10:32.398Z,100025.28
2019-04-16T08:13:01.884Z,100033.05
2019-04-16T08:15:30.187Z,100024.97
2019-04-16T08:17:57.301Z,100028.69
2019-04-16T08:20:24.366Z,100026.75
2019-04-16T08:22:53.201Z,100022.11
2019-04-16T08:25:33.565Z,100017.59
2019-04-16T08:27:56.690Z,100025.20
2019-04-16T08:30:23.535Z,100024.70
2019-04-16T08:32:50.457Z,100017.95
2019-04-16T08:35:17.791Z,100015.09
2019-04-16T08:37:49.231Z,100008.53
2019-04-16T08:40:13.566Z,100008.34
2019-04-16T08:42:44.861Z,100015.06
2019-04-16T08:45:11.120Z,100009.70
2019-04-16T08:47:38.144Z,100003.53
2019-04-16T08:50:05.507Z,100006.00
2019-04-16T08:52:33.158Z,100002.66
2019-04-16T08:55:00.214Z,100003.23
2019-04-16T08:57:31.802Z,100007.47
2019-04-16T08:59:56.554Z,100006.78
2019-04-16T09:02:27.076Z,100006.55
2019-04-16T09:04:53.154Z,99992.84
2019-04-16T09:07:38.534Z,99998.14
2019-04-16T09:10:17.244Z,99989.17
2019-04-16T09:12:43.413Z,99985.22
2019-04-16T09:15:09.018Z,99989.31
2019-04-16T09:21:03.569Z,99982.55
2019-04-16T09:23:30.622Z,99980.53
2019-04-16T09:26:14.006Z,99975.31
2019-04-16T09:28:36.101Z,99977.52
2019-04-16T09:31:05.888Z,99975.95
2019-04-16T09:33:53.549Z,99974.03
2019-04-16T09:36:38.365Z,99974.62
2019-04-16T09:39:25.356Z,99975.97
2019-04-16T09:41:53.668Z,99967.38
2019-04-16T09:44:20.597Z,99972.74
2019-04-16T09:46:51.246Z,99963.36
2019-04-16T09:49:16.368Z,99965.05
2019-04-16T09:51:43.385Z,99969.80
2019-04-16T09:54:13.450Z,99969.69
2019-04-16T09:56:39.542Z,99965.34
2019-04-16T09:59:10.975Z,99962.56
2019-04-16T10:01:39.993Z,99962.85
2019-04-16T10:04:08.756Z,99966.66
2019-04-16T10:06:36.290Z,99964.00
2019-04-16T10:09:05.355Z,99962.26
2019-04-16T10:11:32.703Z,99958.17
2019-04-16T10:14:01.370Z,99956.53
2019-04-16T10:16:29.682Z,99958.04
2019-04-16T10:18:56.714Z,99955.83
2019-04-16T10:21:28.206Z,99947.32
2019-04-16T10:23:55.772Z,99937.72
2019-04-16T10:26:22.691Z,99948.66
2019-04-16T10:28:49.709Z,99952.56
2019-04-16T10:31:19.350Z,99943.37
2019-04-16T10:33:46.649Z,99940.01
2019-04-16T10:36:13.779Z,99951.05
2019-04-16T10:38:50.012Z,99950.95
2019-04-16T10:41:22.069Z,99944.61
2019-04-16T10:43:51.351Z,99935.63
2019-04-16T10:46:35.642Z,99940.23
2019-04-16T10:49:13.870Z,99929.27
2019-04-16T10:51:48.374Z,99928.46
2019-04-16T10:54:33.693Z,99924.00
2019-04-16T10:57:15.529Z,99923.24
2019-04-16T10:59:45.122Z,99920.30
2019-04-16T11:02:20.073Z,99917.30
2019-04-16T11:04:48.876Z,99918.03
2019-04-16T11:07:18.734Z,99901.12
2019-04-16T11:09:45.517Z,99912.13
2019-04-16T11:12:12.788Z,99910.95
2019-04-16T11:14:39.917Z,99911.34
2019-04-16T11:17:09.126Z,99900.72
2019-04-16T11:19:35.990Z,99907.02
2019-04-16T11:22:05.017Z,99905.79
2019-04-16T11:24:32.439Z,99903.11
2019-04-16T11:26:59.359Z,99898.61
2019-04-16T11:29:26.486Z,99894.11
2019-04-16T11:31:53.453Z,99887.53
2019-04-16T11:34:20.787Z,99888.70
2019-04-16T11:36:47.655Z,99894.80
2019-04-16T11:39:14.970Z,99894.30
2019-04-16T11:41:41.932Z,99885.85
2019-04-16T11:44:15.474Z,99884.35
2019-04-16T11:46:38.042Z,99890.07
2019-04-16T11:49:05.121Z,99872.74
2019-04-16T11:51:33.740Z,99888.63
2019-04-16T11:54:00.796Z,99875.65
2019-04-16T11:56:27.805Z,99871.66
2019-04-16T11:58:57.421Z,99868.59
2019-04-16T12:01:25.735Z,99871.42
2019-04-16T12:04:06.877Z,99862.02
2019-04-16T12:06:52.603Z,99861.28
2019-04-16T12:09:38.120Z,99859.88
2019-04-16T12:12:10.709Z,99855.87
2019-04-16T12:14:56.179Z,99849.70
2019-04-16T12:17:25.419Z,99844.58
2019-04-16T12:20:09.591Z,99842.59
2019-04-16T12:22:54.836Z,99841.33
2019-04-16T12:25:30.124Z,99839.42
2019-04-16T12:28:01.921Z,99835.67
2019-04-16T12:30:33.350Z,99833.48
2019-04-16T12:33:14.011Z,99829.89
2019-04-16T12:35:45.209Z,99820.55
2019-04-16T12:38:17.805Z,99831.05
2019-04-16T12:40:55.967Z,99826.19
2019-04-16T12:43:31.118Z,99831.91
2019-04-16T12:46:00.156Z,99822.97
2019-04-16T12:48:47.276Z,99817.55
2019-04-16T12:51:22.544Z,99815.11
2019-04-16T12:53:54.069Z,99810.80
2019-04-16T12:56:41.031Z,99809.70
2019-04-16T12:59:22.150Z,99810.80
2019-04-16T13:02:00.759Z,99811.86
2019-04-16T13:04:48.719Z,99804.30
2019-04-16T13:07:26.863Z,99814.03
2019-04-16T13:10:07.758Z,99804.73
2019-04-16T13:12:46.102Z,99807.27
2019-04-16T13:15:32.290Z,99803.20
2019-04-16T13:18:13.417Z,99801.05
2019-04-16T13:21:03.925Z,99789.41
2019-04-16T13:23:36.168Z,99793.47
2019-04-16T13:26:05.576Z,99785.91
2019-04-16T13:28:32.447Z,99782.93
2019-04-16T13:30:59.323Z,99784.80
2019-04-16T13:33:26.222Z,99785.06
2019-04-16T13:35:53.253Z,99783.20
2019-04-16T13:38:23.474Z,99782.66
2019-04-16T13:40:53.263Z,99776.12
2019-04-16T13:43:21.293Z,99772.51
2019-04-16T13:45:49.575Z,99772.51
2019-04-16T13:48:21.590Z,99778.72
2019-04-16T13:50:50.232Z,99779.56
2019-04-16T13:53:34.609Z,99777.36
2019-04-16T13:56:20.388Z,99783.57
2019-04-16T13:58:49.607Z,99780.59
2019-04-16T14:01:24.637Z,99770.03
2019-04-16T14:03:56.090Z,99773.22
2019-04-16T14:06:20.489Z,99773.16
2019-04-16T14:08:47.525Z,99768.70
2019-04-16T14:11:16.589Z,99765.48
2019-04-16T14:13:45.000Z,99766.21
2019-04-16T14:16:13.723Z,99760.27
2019-04-16T14:18:40.767Z,99757.53
2019-04-16T14:21:07.998Z,99761.90
2019-04-16T14:23:34.969Z,99757.69
2019-04-16T14:26:01.845Z,99756.59
2019-04-16T14:28:33.810Z,99754.61
2019-04-16T14:30:58.006Z,99762.39
2019-04-16T14:33:26.805Z,99760.87
2019-04-16T14:35:54.396Z,99754.39
2019-04-16T14:38:26.035Z,99751.89
2019-04-16T14:40:53.025Z,99754.95
2019-04-16T14:43:21.869Z,99754.92
2019-04-16T14:45:58.011Z,99751.36
2019-04-16T14:48:18.875Z,99753.56
2019-04-16T14:50:45.768Z,99753.84
2019-04-16T14:53:14.782Z,99747.56
2019-04-16T14:55:59.277Z,99748.69
2019-04-16T14:58:17.966Z,99750.70
2019-04-16T15:01:05.187Z,99746.83
2019-04-16T15:03:43.282Z,99749.68
2019-04-16T15:06:11.285Z,99739.31
2019-04-16T15:08:40.907Z,99739.31
2019-04-16T15:11:09.751Z,99749.58
2019-04-16T15:13:44.639Z,99751.95
2019-04-16T15:16:22.207Z,99748.60
2019-04-16T15:18:50.668Z,99746.98
2019-04-16T15:21:28.743Z,99753.61
2019-04-16T15:24:12.517Z,99747.77
2019-04-16T15:26:56.575Z,99743.38
2019-04-16T15:29:25.676Z,99749.98
2019-04-16T15:31:57.797Z,99749.61
2019-04-16T15:34:29.497Z,99742.30
2019-04-16T15:37:01.441Z,99742.78
2019-04-16T15:39:36.448Z,99737.89
2019-04-16T15:42:16.344Z,99738.31
2019-04-16T15:44:46.654Z,99738.21
2019-04-16T15:47:21.575Z,99736.97
2019-04-16T15:49:57.110Z,99727.45
2019-04-16T15:52:31.107Z,99728.56
2019-04-16T15:55:06.399Z,99737.10
2019-04-16T15:57:51.696Z,99730.59
2019-04-16T16:00:37.574Z,99725.70
2019-04-16T16:03:06.677Z,99726.84
2019-04-16T16:05:50.888Z,99724.05
2019-04-16T16:08:29.827Z,99729.81
2019-04-16T16:10:58.747Z,99720.95
2019-04-16T16:13:27.254Z,99724.80
2019-04-16T16:15:54.202Z,99725.08
2019-04-16T16:18:21.247Z,99720.08
2019-04-16T16:20:48.166Z,99720.77
2019-04-16T16:23:15.391Z,99725.80
2019-04-16T16:25:42.546Z,99721.72
2019-04-16T16:28:09.713Z,99716.83
2019-04-16T16:30:36.738Z,99722.66
2019-04-16T16:33:03.782Z,99728.62
2019-04-16T16:35:34.767Z,99724.78
2019-04-16T16:38:00.992Z,99725.84
2019-04-16T16:40:28.189Z,99731.55
2019-04-16T16:42:55.201Z,99723.25
2019-04-16T16:45:24.336Z,99727.81
2019-04-16T16:47:51.592Z,99730.96
2019-04-16T16:50:18.908Z,99733.64
2019-04-16T16:53:03.474Z,99736.83
2019-04-16T16:55:32.712Z,99736.95
2019-04-16T16:58:01.994Z,99737.08
2019-04-16T17:00:37.247Z,99738.22
2019-04-16T17:03:10.035Z,99741.92
2019-04-16T17:05:37.476Z,99747.05
2019-04-16T17:08:05.836Z,99746.35
2019-04-16T17:10:33.217Z,99747.27
2019-04-16T17:13:00.110Z,99748.33
2019-04-16T17:15:27.080Z,99749.56
2019-04-16T17:17:54.063Z,99742.59
2019-04-16T17:20:22.140Z,99749.40
2019-04-16T17:22:49.130Z,99753.80
2019-04-16T17:25:16.279Z,99754.73
2019-04-16T17:27:51.207Z,99760.70
2019-04-16T17:37:28.960Z,99773.54
2019-04-16T17:39:58.451Z,99775.34
2019-04-16T17:42:28.279Z,99781.95
2019-04-16T17:45:12.965Z,99770.18
2019-04-16T17:47:58.320Z,99780.95
2019-04-16T17:50:27.424Z,99783.92
2019-04-16T17:53:15.831Z,99782.11
2019-04-16T17:56:02.447Z,99791.30
2019-04-16T17:58:37.835Z,99787.03
2019-04-16T18:01:10.164Z,99787.03
2019-04-16T18:03:38.622Z,99792.57
2019-04-16T18:06:26.012Z,99789.09
2019-04-16T18:09:13.823Z,99802.39
2019-04-16T18:11:44.794Z,99839.42
2019-04-16T18:14:30.117Z,99852.27
2019-04-16T18:17:14.528Z,99854.84
2019-04-16T18:19:46.576Z,99866.80
2019-04-16T18:22:28.162Z,99883.03
2019-04-16T18:25:05.869Z,99892.91
2019-04-16T18:27:38.083Z,99893.35
2019-04-16T18:30:23.777Z,99901.85
2019-04-16T18:33:05.670Z,99912.97
2019-04-16T18:35:33.376Z,99917.14
2019-04-16T18:38:22.267Z,99925.11
2019-04-16T18:41:03.635Z,99922.41
2019-04-16T18:43:33.747Z,99935.97
2019-04-16T18:46:15.255Z,99944.38
2019-04-16T18:48:45.476Z,99925.37
2019-04-16T18:51:12.593Z,99942.09
2019-04-16T18:53:40.230Z,99943.31
2019-04-16T18:56:08.614Z,99942.47
2019-04-16T18:58:35.675Z,99941.65
2019-04-16T19:01:05.107Z,99939.73
2019-04-16T19:03:32.078Z,99946.41
2019-04-16T19:05:58.963Z,99948.45
2019-04-16T19:08:40.475Z,99952.73
2019-04-16T19:10:54.992Z,99953.38
2019-04-16T19:13:23.173Z,99950.08
2019-04-16T19:15:50.370Z,99952.81
2019-04-16T19:18:20.048Z,99956.03
2019-04-16T19:20:51.497Z,99954.47
2019-04-16T19:23:16.110Z,99955.03
2019-04-16T19:25:43.465Z,99950.91
2019-04-16T19:28:10.532Z,99964.81
2019-04-16T19:30:38.090Z,99963.63
2019-04-16T19:33:05.201Z,99959.97
2019-04-16T19:35:32.122Z,99965.83
2019-04-16T19:38:02.316Z,99969.36
2019-04-16T19:40:28.688Z,99974.39
2019-04-16T19:42:57.829Z,99967.79
2019-04-16T19:45:25.879Z,99966.41
2019-04-16T19:47:52.897Z,99974.20
2019-04-16T19:50:19.900Z,99972.53
2019-04-16T19:52:47.712Z,99978.02
2019-04-16T19:55:15.897Z,99972.89
2019-04-16T19:57:43.379Z,99975.07
2019-04-16T20:00:10.886Z,99981.38
2019-04-16T20:02:38.206Z,99979.18
2019-04-16T20:05:06.057Z,99981.17
2019-04-16T20:07:33.647Z,99983.16
2019-04-16T20:10:00.921Z,99979.07
2019-04-16T20:12:28.813Z,99980.95
2019-04-16T20:14:56.182Z,99979.67
2019-04-16T20:17:23.433Z,99973.91
2019-04-16T20:20:00.291Z,99976.72
2019-04-16T20:22:30.118Z,99984.27
2019-04-16T20:24:57.732Z,99971.04
2019-04-16T20:27:25.248Z,99980.94
2019-04-16T20:29:53.270Z,99980.47
2019-04-16T20:32:20.710Z,99984.94
2019-04-16T20:34:47.752Z,99995.87
2019-04-16T20:37:14.779Z,99996.56
2019-04-16T20:39:41.975Z,99992.32
2019-04-16T20:42:09.050Z,99991.38
2019-04-16T20:44:35.932Z,100005.16
2019-04-16T20:47:07.718Z,99991.81
2019-04-16T20:49:31.870Z,99996.88
2019-04-16T20:52:00.627Z,99995.20
2019-04-16T20:54:30.092Z,99991.93
2019-04-16T20:56:57.119Z,99996.60
2019-04-16T20:59:24.031Z,99995.75
2019-04-16T21:01:51.037Z,99998.58
2019-04-16T21:04:17.835Z,99999.74
2019-04-16T21:06:44.775Z,100006.19
2019-04-16T21:09:11.764Z,100001.42
2019-04-16T21:11:41.184Z,100001.09
2019-04-16T21:14:07.483Z,100005.91
2019-04-16T21:16:34.715Z,100002.97
2019-04-16T21:19:01.837Z,100008.11
2019-04-16T21:21:28.956Z,100009.30
2019-04-16T21:23:55.867Z,100014.25
2019-04-16T21:26:24.313Z,100015.88
2019-04-16T21:28:53.293Z,100020.53
2019-04-16T21:31:22.473Z,100015.88
2019-04-16T21:33:57.638Z,100014.25
2019-04-16T21:36:38.533Z,100013.77
2019-04-16T21:39:08.650Z,100017.41
2019-04-16T21:41:35.602Z,100009.63
2019-04-16T21:44:03.003Z,100015.25
2019-04-16T21:46:30.183Z,100012.45
2019-04-16T21:48:59.748Z,100009.00
2019-04-16T21:51:27.263Z,100017.25
2019-04-16T21:53:57.401Z,100008.66
2019-04-16T21:56:22.969Z,100008.66
2019-04-16T21:58:50.426Z,100018.92
2019-04-16T22:01:19.711Z,100015.27
2019-04-16T22:03:48.857Z,100012.66
2019-04-16T22:06:19.765Z,100011.02
2019-04-16T22:08:44.745Z,100010.36
2019-04-16T22:11:12.600Z,100011.51
2019-04-16T22:13:41.371Z,100012.00
2019-04-16T22:16:08.414Z,100009.99
2019-04-16T22:18:37.575Z,100010.84
2019-04-16T22:21:09.506Z,100006.05
2019-04-16T22:23:34.817Z,100002.41
2019-04-16T22:26:03.009Z,100002.08
2019-04-16T22:28:30.513Z,100001.74
2019-04-16T22:30:58.093Z,99998.29
2019-04-16T22:33:24.974Z,100005.39
2019-04-16T22:35:52.036Z,100003.38
2019-04-16T22:38:18.968Z,100002.08
2019-04-16T22:40:51.545Z,100001.08
2019-04-16T22:43:39.681Z,100001.41
2019-04-16T22:46:23.471Z,100001.74
2019-04-16T22:48:54.289Z,99993.34
2019-04-16T22:51:22.067Z,99996.80
2019-04-16T22:53:49.535Z,99991.55
2019-04-16T22:56:17.529Z,99988.93
2019-04-16T22:58:48.359Z,99995.36
2019-04-16T23:01:16.029Z,99999.48
2019-04-16T23:03:43.060Z,99994.37
2019-04-16T23:06:09.971Z,99993.19
2019-04-16T23:08:37.483Z,99992.20
2019-04-16T23:11:04.949Z,99988.92
2019-04-16T23:13:32.673Z,99996.53
2019-04-16T23:16:00.318Z,99988.45
2019-04-16T23:18:27.615Z,99984.95
2019-04-16T23:20:54.546Z,99981.64
2019-04-16T23:23:21.474Z,99988.25
2019-04-16T23:25:48.264Z,99985.14
2019-04-16T23:28:15.045Z,99987.89
2019-04-16T23:30:42.049Z,99984.29
2019-04-16T23:33:09.251Z,99982.81
2019-04-16T23:35:36.063Z,99981.34
2019-04-16T23:38:03.163Z,99984.98
2019-04-16T23:40:30.161Z,99984.48
2019-04-16T23:42:59.081Z,99983.17
2019-04-16T23:45:31.107Z,99979.69
2019-04-16T23:48:05.332Z,99980.69
2019-04-16T23:50:53.185Z,99981.64
2019-04-16T23:53:24.988Z,99980.98
2019-04-16T23:55:53.901Z,99977.05
2019-04-16T23:58:28.510Z,99972.63
